Terminal Aerodrome Forecast
Issued by NWS

Home | Current Version | Previous Version | Text Only | Print | Product List | Glossary Off
Versions: 1 2 3 4 5 6 7 8 9 10 11 12 13 14 15

549
FTUS43 KMPX 122321
TAFAXN
TAF
KAXN 122321Z 1300/1324 20007KT P6SM BKN060
     FM130700 24007KT P6SM BKN100
     FM130900 30010KT P6SM VCSH OVC030
     FM131200 32018G27KT P6SM OVC010
     FM131500 33024G32KT P6SM OVC015=

USA.gov is the U.S. government's official web portal to all federal, state and local government web resources and services.